sensor_id;sensor_type;location;lat;lon;timestamp;P1;durP1;ratioP1;P2;durP2;ratioP2
37389;SDS011;39679;49.000;8.390;2022-08-11T00:00:33;3.67;;;1.60;;
37389;SDS011;39679;49.000;8.390;2022-08-11T00:05:52;4.10;;;1.63;;
37389;SDS011;39679;49.000;8.390;2022-08-11T00:11:04;2.97;;;1.80;;
37389;SDS011;39679;49.000;8.390;2022-08-11T00:16:16;3.28;;;1.50;;
37389;SDS011;39679;49.000;8.390;2022-08-11T00:21:18;2.33;;;1.88;;
37389;SDS011;39679;49.000;8.390;2022-08-11T00:26:20;4.75;;;1.50;;
37389;SDS011;39679;49.000;8.390;2022-08-11T00:31:28;3.80;;;1.60;;
37389;SDS011;39679;49.000;8.390;2022-08-11T00:36:38;3.20;;;1.50;;
37389;SDS011;39679;49.000;8.390;2022-08-11T01:09:11;3.42;;;1.50;;
37389;SDS011;39679;49.000;8.390;2022-08-11T01:14:21;3.25;;;1.70;;
37389;SDS011;39679;49.000;8.390;2022-08-11T01:41:14;2.88;;;1.50;;
37389;SDS011;39679;49.000;8.390;2022-08-11T01:52:14;2.67;;;1.23;;
37389;SDS011;39679;49.000;8.390;2022-08-11T01:57:25;1.40;;;1.30;;
37389;SDS011;39679;49.000;8.390;2022-08-11T02:07:53;1.70;;;1.20;;
37389;SDS011;39679;49.000;8.390;2022-08-11T02:13:00;2.88;;;1.40;;
37389;SDS011;39679;49.000;8.390;2022-08-11T02:18:27;1.90;;;1.40;;
37389;SDS011;39679;49.000;8.390;2022-08-11T02:23:50;1.50;;;1.40;;
37389;SDS011;39679;49.000;8.390;2022-08-11T02:29:49;2.00;;;1.55;;
37389;SDS011;39679;49.000;8.390;2022-08-11T02:50:12;1.33;;;1.23;;
37389;SDS011;39679;49.000;8.390;2022-08-11T02:55:26;1.40;;;1.27;;
37389;SDS011;39679;49.000;8.390;2022-08-11T03:00:41;1.70;;;1.50;;
37389;SDS011;39679;49.000;8.390;2022-08-11T03:05:50;2.38;;;1.50;;
37389;SDS011;39679;49.000;8.390;2022-08-11T03:11:14;1.38;;;1.27;;
37389;SDS011;39679;49.000;8.390;2022-08-11T03:21:51;1.77;;;1.10;;
37389;SDS011;39679;49.000;8.390;2022-08-11T03:27:02;3.88;;;1.42;;
37389;SDS011;39679;49.000;8.390;2022-08-11T03:32:06;1.23;;;1.13;;
37389;SDS011;39679;49.000;8.390;2022-08-11T03:42:57;1.25;;;1.15;;
37389;SDS011;39679;49.000;8.390;2022-08-11T04:03:26;2.83;;;1.13;;
37389;SDS011;39679;49.000;8.390;2022-08-11T04:19:19;1.40;;;1.30;;
37389;SDS011;39679;49.000;8.390;2022-08-11T04:56:42;1.55;;;1.27;;
37389;SDS011;39679;49.000;8.390;2022-08-11T05:06:54;1.83;;;1.50;;
37389;SDS011;39679;49.000;8.390;2022-08-11T05:12:25;2.95;;;1.30;;
37389;SDS011;39679;49.000;8.390;2022-08-11T05:17:35;2.08;;;1.50;;
37389;SDS011;39679;49.000;8.390;2022-08-11T05:22:37;3.08;;;1.40;;
37389;SDS011;39679;49.000;8.390;2022-08-11T05:38:04;2.53;;;1.40;;
37389;SDS011;39679;49.000;8.390;2022-08-11T05:43:15;1.45;;;1.35;;
37389;SDS011;39679;49.000;8.390;2022-08-11T05:48:16;2.03;;;1.40;;
37389;SDS011;39679;49.000;8.390;2022-08-11T05:53:17;2.30;;;1.55;;
37389;SDS011;39679;49.000;8.390;2022-08-11T05:58:18;1.73;;;1.50;;
37389;SDS011;39679;49.000;8.390;2022-08-11T06:03:19;1.48;;;1.38;;
37389;SDS011;39679;49.000;8.390;2022-08-11T06:08:28;3.45;;;1.25;;
37389;SDS011;39679;49.000;8.390;2022-08-11T06:13:31;1.88;;;1.45;;
37389;SDS011;39679;49.000;8.390;2022-08-11T06:18:32;1.50;;;1.40;;
37389;SDS011;39679;49.000;8.390;2022-08-11T06:23:33;2.25;;;1.40;;
37389;SDS011;39679;49.000;8.390;2022-08-11T06:28:35;1.45;;;1.35;;
37389;SDS011;39679;49.000;8.390;2022-08-11T06:33:38;1.70;;;1.30;;
37389;SDS011;39679;49.000;8.390;2022-08-11T06:44:42;5.70;;;2.08;;
37389;SDS011;39679;49.000;8.390;2022-08-11T06:49:54;3.03;;;1.95;;
37389;SDS011;39679;49.000;8.390;2022-08-11T06:54:57;4.27;;;1.93;;
37389;SDS011;39679;49.000;8.390;2022-08-11T07:00:04;4.00;;;1.75;;
37389;SDS011;39679;49.000;8.390;2022-08-11T07:05:28;3.25;;;1.90;;
37389;SDS011;39679;49.000;8.390;2022-08-11T07:16:00;5.25;;;2.22;;
37389;SDS011;39679;49.000;8.390;2022-08-11T07:21:06;2.67;;;1.85;;
37389;SDS011;39679;49.000;8.390;2022-08-11T07:26:13;3.60;;;2.10;;
37389;SDS011;39679;49.000;8.390;2022-08-11T07:31:16;5.10;;;2.10;;
37389;SDS011;39679;49.000;8.390;2022-08-11T07:36:24;3.95;;;1.92;;
37389;SDS011;39679;49.000;8.390;2022-08-11T07:41:27;5.40;;;2.45;;
37389;SDS011;39679;49.000;8.390;2022-08-11T07:46:28;5.82;;;2.28;;
37389;SDS011;39679;49.000;8.390;2022-08-11T07:51:28;3.28;;;2.40;;
37389;SDS011;39679;49.000;8.390;2022-08-11T07:56:31;2.85;;;1.88;;
37389;SDS011;39679;49.000;8.390;2022-08-11T08:01:36;5.30;;;2.55;;
37389;SDS011;39679;49.000;8.390;2022-08-11T08:06:37;7.15;;;2.08;;
37389;SDS011;39679;49.000;8.390;2022-08-11T08:11:38;6.50;;;2.30;;
37389;SDS011;39679;49.000;8.390;2022-08-11T08:16:40;5.53;;;2.05;;
37389;SDS011;39679;49.000;8.390;2022-08-11T08:21:42;3.00;;;2.00;;
37389;SDS011;39679;49.000;8.390;2022-08-11T08:26:43;3.55;;;1.90;;
37389;SDS011;39679;49.000;8.390;2022-08-11T08:31:44;5.03;;;1.80;;
37389;SDS011;39679;49.000;8.390;2022-08-11T08:36:46;4.03;;;2.10;;
37389;SDS011;39679;49.000;8.390;2022-08-11T08:41:48;6.20;;;2.28;;
37389;SDS011;39679;49.000;8.390;2022-08-11T08:46:54;4.80;;;2.30;;
37389;SDS011;39679;49.000;8.390;2022-08-11T08:51:57;6.47;;;2.30;;
37389;SDS011;39679;49.000;8.390;2022-08-11T08:57:03;3.03;;;1.95;;
37389;SDS011;39679;49.000;8.390;2022-08-11T09:02:07;4.10;;;2.35;;
37389;SDS011;39679;49.000;8.390;2022-08-11T09:07:08;2.97;;;1.90;;
37389;SDS011;39679;49.000;8.390;2022-08-11T09:12:10;4.88;;;1.70;;
37389;SDS011;39679;49.000;8.390;2022-08-11T09:17:12;4.30;;;2.20;;
37389;SDS011;39679;49.000;8.390;2022-08-11T09:22:17;3.95;;;2.15;;
37389;SDS011;39679;49.000;8.390;2022-08-11T09:27:18;2.70;;;1.98;;
37389;SDS011;39679;49.000;8.390;2022-08-11T09:32:20;2.55;;;2.03;;
37389;SDS011;39679;49.000;8.390;2022-08-11T09:37:22;3.28;;;2.13;;
37389;SDS011;39679;49.000;8.390;2022-08-11T09:42:23;4.15;;;2.00;;
37389;SDS011;39679;49.000;8.390;2022-08-11T09:47:26;5.57;;;2.30;;
37389;SDS011;39679;49.000;8.390;2022-08-11T09:52:29;3.75;;;2.00;;
37389;SDS011;39679;49.000;8.390;2022-08-11T09:57:34;4.93;;;2.35;;
37389;SDS011;39679;49.000;8.390;2022-08-11T10:02:39;3.92;;;2.35;;
37389;SDS011;39679;49.000;8.390;2022-08-11T10:07:46;4.15;;;2.05;;
37389;SDS011;39679;49.000;8.390;2022-08-11T10:12:55;4.00;;;2.13;;
37389;SDS011;39679;49.000;8.390;2022-08-11T10:18:12;6.90;;;2.30;;
37389;SDS011;39679;49.000;8.390;2022-08-11T10:23:16;7.15;;;2.20;;
37389;SDS011;39679;49.000;8.390;2022-08-11T10:28:17;4.72;;;2.33;;
37389;SDS011;39679;49.000;8.390;2022-08-11T10:33:17;3.35;;;2.00;;
37389;SDS011;39679;49.000;8.390;2022-08-11T10:38:18;5.60;;;2.72;;
37389;SDS011;39679;49.000;8.390;2022-08-11T10:43:19;9.10;;;4.30;;
37389;SDS011;39679;49.000;8.390;2022-08-11T10:48:20;16.67;;;3.03;;
37389;SDS011;39679;49.000;8.390;2022-08-11T10:53:23;3.80;;;2.08;;
37389;SDS011;39679;49.000;8.390;2022-08-11T10:58:23;5.28;;;2.42;;
37389;SDS011;39679;49.000;8.390;2022-08-11T11:03:25;4.68;;;2.10;;
37389;SDS011;39679;49.000;8.390;2022-08-11T11:08:28;4.28;;;1.90;;
37389;SDS011;39679;49.000;8.390;2022-08-11T11:13:30;3.30;;;1.98;;
37389;SDS011;39679;49.000;8.390;2022-08-11T11:18:35;1.90;;;1.50;;
37389;SDS011;39679;49.000;8.390;2022-08-11T11:24:24;2.67;;;1.83;;
37389;SDS011;39679;49.000;8.390;2022-08-11T11:29:31;4.53;;;1.70;;
37389;SDS011;39679;49.000;8.390;2022-08-11T11:34:59;3.20;;;1.90;;
37389;SDS011;39679;49.000;8.390;2022-08-11T11:40:07;3.45;;;1.92;;
37389;SDS011;39679;49.000;8.390;2022-08-11T11:45:09;3.13;;;1.83;;
37389;SDS011;39679;49.000;8.390;2022-08-11T11:50:11;4.53;;;1.75;;
37389;SDS011;39679;49.000;8.390;2022-08-11T11:55:13;2.70;;;1.75;;
37389;SDS011;39679;49.000;8.390;2022-08-11T12:00:13;3.58;;;1.73;;
37389;SDS011;39679;49.000;8.390;2022-08-11T12:05:14;3.90;;;1.70;;
37389;SDS011;39679;49.000;8.390;2022-08-11T12:10:15;2.45;;;1.50;;
37389;SDS011;39679;49.000;8.390;2022-08-11T12:15:16;2.60;;;1.75;;
37389;SDS011;39679;49.000;8.390;2022-08-11T12:20:17;2.58;;;1.50;;
37389;SDS011;39679;49.000;8.390;2022-08-11T12:25:18;2.65;;;1.40;;
37389;SDS011;39679;49.000;8.390;2022-08-11T12:30:18;2.55;;;1.73;;
37389;SDS011;39679;49.000;8.390;2022-08-11T12:35:18;1.52;;;1.40;;
37389;SDS011;39679;49.000;8.390;2022-08-11T12:40:21;1.98;;;1.50;;
37389;SDS011;39679;49.000;8.390;2022-08-11T12:45:25;2.75;;;1.85;;
37389;SDS011;39679;49.000;8.390;2022-08-11T12:50:26;1.85;;;1.63;;
37389;SDS011;39679;49.000;8.390;2022-08-11T12:55:27;2.90;;;1.88;;
37389;SDS011;39679;49.000;8.390;2022-08-11T13:00:27;3.47;;;1.65;;
37389;SDS011;39679;49.000;8.390;2022-08-11T13:05:30;3.67;;;1.95;;
37389;SDS011;39679;49.000;8.390;2022-08-11T13:10:31;2.55;;;1.60;;
37389;SDS011;39679;49.000;8.390;2022-08-11T13:15:32;2.15;;;1.55;;
37389;SDS011;39679;49.000;8.390;2022-08-11T13:20:34;2.10;;;1.40;;
37389;SDS011;39679;49.000;8.390;2022-08-11T13:25:35;2.65;;;1.60;;
37389;SDS011;39679;49.000;8.390;2022-08-11T13:30:38;1.85;;;1.65;;
37389;SDS011;39679;49.000;8.390;2022-08-11T13:35:39;2.42;;;1.90;;
37389;SDS011;39679;49.000;8.390;2022-08-11T13:40:40;2.22;;;1.70;;
37389;SDS011;39679;49.000;8.390;2022-08-11T13:45:42;2.33;;;1.60;;
37389;SDS011;39679;49.000;8.390;2022-08-11T13:50:45;3.50;;;1.50;;
37389;SDS011;39679;49.000;8.390;2022-08-11T13:55:46;2.08;;;1.60;;
37389;SDS011;39679;49.000;8.390;2022-08-11T14:00:48;3.08;;;1.85;;
37389;SDS011;39679;49.000;8.390;2022-08-11T14:05:51;2.25;;;1.45;;
37389;SDS011;39679;49.000;8.390;2022-08-11T14:10:54;2.47;;;1.70;;
37389;SDS011;39679;49.000;8.390;2022-08-11T14:16:03;5.40;;;1.80;;
37389;SDS011;39679;49.000;8.390;2022-08-11T14:21:11;4.15;;;1.80;;
37389;SDS011;39679;49.000;8.390;2022-08-11T14:31:16;4.78;;;1.65;;
37389;SDS011;39679;49.000;8.390;2022-08-11T14:36:17;1.85;;;1.40;;
37389;SDS011;39679;49.000;8.390;2022-08-11T14:41:18;2.47;;;1.73;;
37389;SDS011;39679;49.000;8.390;2022-08-11T14:46:19;3.47;;;1.52;;
37389;SDS011;39679;49.000;8.390;2022-08-11T14:51:20;2.50;;;1.77;;
37389;SDS011;39679;49.000;8.390;2022-08-11T14:56:21;2.65;;;1.50;;
37389;SDS011;39679;49.000;8.390;2022-08-11T15:01:22;1.98;;;1.40;;
37389;SDS011;39679;49.000;8.390;2022-08-11T15:06:24;3.58;;;1.60;;
37389;SDS011;39679;49.000;8.390;2022-08-11T15:11:29;1.58;;;1.30;;
37389;SDS011;39679;49.000;8.390;2022-08-11T15:16:30;2.40;;;1.50;;
37389;SDS011;39679;49.000;8.390;2022-08-11T15:21:32;3.10;;;1.30;;
37389;SDS011;39679;49.000;8.390;2022-08-11T15:26:32;2.38;;;1.55;;
37389;SDS011;39679;49.000;8.390;2022-08-11T15:31:38;2.50;;;1.33;;
37389;SDS011;39679;49.000;8.390;2022-08-11T15:36:39;2.17;;;1.23;;
37389;SDS011;39679;49.000;8.390;2022-08-11T15:41:45;3.05;;;1.75;;
37389;SDS011;39679;49.000;8.390;2022-08-11T15:46:54;2.42;;;1.63;;
37389;SDS011;39679;49.000;8.390;2022-08-11T15:57:09;1.23;;;1.13;;
37389;SDS011;39679;49.000;8.390;2022-08-11T16:02:11;2.45;;;1.70;;
37389;SDS011;39679;49.000;8.390;2022-08-11T16:07:15;2.70;;;1.90;;
37389;SDS011;39679;49.000;8.390;2022-08-11T16:12:19;4.37;;;1.70;;
37389;SDS011;39679;49.000;8.390;2022-08-11T16:17:23;2.22;;;1.50;;
37389;SDS011;39679;49.000;8.390;2022-08-11T16:22:27;3.20;;;1.90;;
37389;SDS011;39679;49.000;8.390;2022-08-11T16:27:30;2.60;;;1.50;;
37389;SDS011;39679;49.000;8.390;2022-08-11T16:32:34;3.60;;;1.80;;
37389;SDS011;39679;49.000;8.390;2022-08-11T16:37:38;2.03;;;1.40;;
37389;SDS011;39679;49.000;8.390;2022-08-11T16:42:41;2.10;;;1.30;;
37389;SDS011;39679;49.000;8.390;2022-08-11T16:47:45;1.75;;;1.50;;
37389;SDS011;39679;49.000;8.390;2022-08-11T16:52:45;2.22;;;1.35;;
37389;SDS011;39679;49.000;8.390;2022-08-11T16:57:46;1.88;;;1.60;;
37389;SDS011;39679;49.000;8.390;2022-08-11T17:02:51;2.40;;;1.60;;
37389;SDS011;39679;49.000;8.390;2022-08-11T17:07:53;2.15;;;1.50;;
37389;SDS011;39679;49.000;8.390;2022-08-11T17:12:56;2.13;;;1.67;;
37389;SDS011;39679;49.000;8.390;2022-08-11T17:17:58;2.17;;;1.63;;
37389;SDS011;39679;49.000;8.390;2022-08-11T17:23:02;1.55;;;1.30;;
37389;SDS011;39679;49.000;8.390;2022-08-11T17:28:04;2.42;;;1.67;;
37389;SDS011;39679;49.000;8.390;2022-08-11T17:33:05;1.52;;;1.27;;
37389;SDS011;39679;49.000;8.390;2022-08-11T17:43:09;7.20;;;1.58;;
37389;SDS011;39679;49.000;8.390;2022-08-11T17:48:09;3.28;;;1.50;;
37389;SDS011;39679;49.000;8.390;2022-08-11T17:53:10;4.07;;;1.80;;
37389;SDS011;39679;49.000;8.390;2022-08-11T17:58:13;2.35;;;1.50;;
37389;SDS011;39679;49.000;8.390;2022-08-11T18:03:16;4.05;;;1.40;;
37389;SDS011;39679;49.000;8.390;2022-08-11T18:08:19;3.00;;;1.83;;
37389;SDS011;39679;49.000;8.390;2022-08-11T18:13:21;2.20;;;1.50;;
37389;SDS011;39679;49.000;8.390;2022-08-11T18:18:22;2.97;;;2.00;;
37389;SDS011;39679;49.000;8.390;2022-08-11T18:23:23;3.92;;;1.90;;
37389;SDS011;39679;49.000;8.390;2022-08-11T18:28:25;4.45;;;2.08;;
37389;SDS011;39679;49.000;8.390;2022-08-11T18:33:29;2.13;;;1.80;;
37389;SDS011;39679;49.000;8.390;2022-08-11T18:38:37;4.22;;;1.90;;
37389;SDS011;39679;49.000;8.390;2022-08-11T18:43:41;3.47;;;1.67;;
37389;SDS011;39679;49.000;8.390;2022-08-11T18:48:46;2.83;;;1.80;;
37389;SDS011;39679;49.000;8.390;2022-08-11T18:53:51;2.65;;;1.77;;
37389;SDS011;39679;49.000;8.390;2022-08-11T18:58:55;3.33;;;2.08;;
37389;SDS011;39679;49.000;8.390;2022-08-11T19:03:56;4.28;;;1.80;;
37389;SDS011;39679;49.000;8.390;2022-08-11T19:09:01;2.80;;;1.70;;
37389;SDS011;39679;49.000;8.390;2022-08-11T19:14:04;2.85;;;1.90;;
37389;SDS011;39679;49.000;8.390;2022-08-11T19:19:05;2.08;;;1.65;;
37389;SDS011;39679;49.000;8.390;2022-08-11T19:24:07;2.30;;;1.80;;
37389;SDS011;39679;49.000;8.390;2022-08-11T19:29:09;3.35;;;1.95;;
37389;SDS011;39679;49.000;8.390;2022-08-11T19:34:13;3.60;;;2.17;;
37389;SDS011;39679;49.000;8.390;2022-08-11T19:44:18;5.55;;;1.80;;
37389;SDS011;39679;49.000;8.390;2022-08-11T19:49:20;3.38;;;1.83;;
37389;SDS011;39679;49.000;8.390;2022-08-11T19:54:25;6.15;;;2.25;;
37389;SDS011;39679;49.000;8.390;2022-08-11T19:59:29;4.53;;;1.80;;
37389;SDS011;39679;49.000;8.390;2022-08-11T20:04:31;2.83;;;2.00;;
37389;SDS011;39679;49.000;8.390;2022-08-11T20:09:31;4.18;;;1.98;;
37389;SDS011;39679;49.000;8.390;2022-08-11T20:14:34;3.05;;;1.75;;
37389;SDS011;39679;49.000;8.390;2022-08-11T20:19:38;5.45;;;2.33;;
37389;SDS011;39679;49.000;8.390;2022-08-11T20:24:40;3.13;;;2.15;;
37389;SDS011;39679;49.000;8.390;2022-08-11T20:29:42;8.82;;;2.20;;
37389;SDS011;39679;49.000;8.390;2022-08-11T20:34:43;1.70;;;1.50;;
37389;SDS011;39679;49.000;8.390;2022-08-11T20:39:44;2.15;;;1.80;;
37389;SDS011;39679;49.000;8.390;2022-08-11T20:44:47;5.30;;;1.90;;
37389;SDS011;39679;49.000;8.390;2022-08-11T20:49:48;4.40;;;2.35;;
37389;SDS011;39679;49.000;8.390;2022-08-11T20:54:50;4.07;;;1.92;;
37389;SDS011;39679;49.000;8.390;2022-08-11T20:59:50;3.58;;;2.10;;
37389;SDS011;39679;49.000;8.390;2022-08-11T21:04:51;3.15;;;1.88;;
37389;SDS011;39679;49.000;8.390;2022-08-11T21:09:52;2.85;;;2.03;;
37389;SDS011;39679;49.000;8.390;2022-08-11T21:14:54;2.80;;;2.05;;
37389;SDS011;39679;49.000;8.390;2022-08-11T21:19:57;5.30;;;2.20;;
37389;SDS011;39679;49.000;8.390;2022-08-11T21:25:03;4.13;;;2.40;;
37389;SDS011;39679;49.000;8.390;2022-08-11T21:30:06;3.67;;;2.35;;
37389;SDS011;39679;49.000;8.390;2022-08-11T21:35:07;3.15;;;1.90;;
37389;SDS011;39679;49.000;8.390;2022-08-11T21:40:09;5.43;;;2.42;;
37389;SDS011;39679;49.000;8.390;2022-08-11T21:45:10;3.47;;;2.40;;
37389;SDS011;39679;49.000;8.390;2022-08-11T21:50:13;2.63;;;1.80;;
37389;SDS011;39679;49.000;8.390;2022-08-11T21:55:14;4.53;;;2.22;;
37389;SDS011;39679;49.000;8.390;2022-08-11T22:00:14;4.07;;;2.33;;
37389;SDS011;39679;49.000;8.390;2022-08-11T22:05:15;4.50;;;2.60;;
37389;SDS011;39679;49.000;8.390;2022-08-11T22:10:16;5.80;;;2.50;;
37389;SDS011;39679;49.000;8.390;2022-08-11T22:15:17;4.05;;;2.20;;
37389;SDS011;39679;49.000;8.390;2022-08-11T22:20:18;4.82;;;2.35;;
37389;SDS011;39679;49.000;8.390;2022-08-11T22:25:22;2.72;;;2.33;;
37389;SDS011;39679;49.000;8.390;2022-08-11T22:30:25;4.53;;;1.95;;
37389;SDS011;39679;49.000;8.390;2022-08-11T22:35:25;2.53;;;2.05;;
37389;SDS011;39679;49.000;8.390;2022-08-11T22:40:26;6.60;;;2.35;;
37389;SDS011;39679;49.000;8.390;2022-08-11T22:45:27;5.25;;;2.50;;
37389;SDS011;39679;49.000;8.390;2022-08-11T22:50:27;3.67;;;2.25;;
37389;SDS011;39679;49.000;8.390;2022-08-11T22:55:28;8.20;;;2.72;;
37389;SDS011;39679;49.000;8.390;2022-08-11T23:00:29;15.32;;;5.07;;
37389;SDS011;39679;49.000;8.390;2022-08-11T23:05:30;23.73;;;7.13;;
37389;SDS011;39679;49.000;8.390;2022-08-11T23:10:32;17.88;;;5.50;;
37389;SDS011;39679;49.000;8.390;2022-08-11T23:15:33;12.18;;;4.40;;
37389;SDS011;39679;49.000;8.390;2022-08-11T23:20:34;15.48;;;3.92;;
37389;SDS011;39679;49.000;8.390;2022-08-11T23:25:35;11.25;;;3.33;;
37389;SDS011;39679;49.000;8.390;2022-08-11T23:30:35;8.88;;;3.28;;
37389;SDS011;39679;49.000;8.390;2022-08-11T23:35:38;7.57;;;2.80;;
37389;SDS011;39679;49.000;8.390;2022-08-11T23:40:40;6.05;;;2.50;;
37389;SDS011;39679;49.000;8.390;2022-08-11T23:45:41;9.38;;;2.88;;
37389;SDS011;39679;49.000;8.390;2022-08-11T23:50:41;4.65;;;2.80;;
37389;SDS011;39679;49.000;8.390;2022-08-11T23:55:44;10.30;;;2.90;;
